Time;durP1;ratioP1;P1;durP2;ratioP2;P2;SDS_P1;SDS_P2;PMS_P1;PMS_P2;Temp;Humidity;BMP_temperature;BMP_pressure;BME280_temperature;BME280_humidity;BME280_pressure;Samples;Min_cycle;Max_cycle;Signal;HPM_P1;HPM_P2
2022/06/12 00:00:50;;;;;;;5.50;3.53;;;24.00;55.90;;;;;;6283039;27;80553;-69
2022/06/12 00:03:51;;;;;;;5.43;3.22;;;24.00;55.80;;;;;;6309268;27;81856;-69
2022/06/12 00:06:52;;;;;;;4.10;3.05;;;24.00;56.10;;;;;;6300703;27;80843;-69
2022/06/12 00:09:53;;;;;;;6.97;3.22;;;24.00;56.30;;;;;;6304432;27;81240;-70
2022/06/12 00:12:53;;;;;;;9.20;3.67;;;24.00;55.80;;;;;;6304595;27;81137;-70
2022/06/12 00:15:54;;;;;;;4.35;2.88;;;24.00;55.80;;;;;;6306487;27;80782;-70
2022/06/12 00:18:55;;;;;;;6.78;3.38;;;24.00;56.20;;;;;;6304920;27;80956;-70
2022/06/12 00:21:55;;;;;;;5.90;3.65;;;24.00;55.90;;;;;;6308888;27;81264;-70
2022/06/12 00:24:56;;;;;;;4.93;3.10;;;24.00;55.90;;;;;;6306989;27;82056;-70
2022/06/12 00:27:56;;;;;;;5.15;2.97;;;24.00;55.90;;;;;;6309483;27;80992;-70
2022/06/12 00:30:57;;;;;;;3.65;3.08;;;24.00;56.20;;;;;;6307264;27;80155;-70
2022/06/12 00:33:57;;;;;;;7.20;3.35;;;24.00;56.10;;;;;;6309193;27;80515;-68
2022/06/12 00:36:58;;;;;;;6.50;3.47;;;24.00;56.20;;;;;;6286450;27;82972;-69
2022/06/12 00:39:58;;;;;;;8.27;3.20;;;24.00;55.80;;;;;;6297512;27;80316;-68
2022/06/12 00:42:59;;;;;;;3.55;3.08;;;24.00;56.10;;;;;;6306056;27;81403;-68
2022/06/12 00:45:59;;;;;;;4.95;3.63;;;24.00;56.20;;;;;;6293138;27;80950;-69
2022/06/12 00:49:00;;;;;;;4.53;3.03;;;24.00;55.90;;;;;;6306308;27;80241;-69
2022/06/12 00:52:00;;;;;;;4.18;2.97;;;24.00;56.10;;;;;;6307814;27;81724;-69
2022/06/12 00:55:01;;;;;;;6.63;3.03;;;24.00;56.20;;;;;;6305657;27;80860;-69
2022/06/12 00:58:01;;;;;;;8.27;3.28;;;23.90;56.10;;;;;;6305424;27;81620;-69
2022/06/12 01:01:02;;;;;;;7.22;3.40;;;23.90;56.20;;;;;;6308379;27;80023;-70
2022/06/12 01:07:21;;;;;;;5.10;2.92;;;23.90;56.30;;;;;;6302783;27;81358;-69
2022/06/12 01:10:23;;;;;;;5.32;2.95;;;24.00;55.90;;;;;;6308153;27;80406;-69
2022/06/12 01:13:23;;;;;;;4.53;2.65;;;23.90;55.90;;;;;;6301768;27;81913;-70
2022/06/12 01:16:24;;;;;;;5.35;3.42;;;23.90;56.10;;;;;;6307523;27;80392;-69
2022/06/12 01:19:25;;;;;;;4.63;2.58;;;23.90;55.90;;;;;;6301867;27;81185;-71
2022/06/12 01:22:26;;;;;;;4.38;2.70;;;23.90;56.10;;;;;;6304523;27;80379;-70
2022/06/12 01:25:26;;;;;;;5.38;2.95;;;23.90;55.90;;;;;;6299370;27;80986;-69
2022/06/12 01:28:27;;;;;;;5.43;2.95;;;23.90;55.90;;;;;;6307587;27;80463;-70
2022/06/12 01:31:28;;;;;;;5.65;2.83;;;23.90;56.00;;;;;;6306724;27;80503;-70
2022/06/12 01:34:28;;;;;;;5.47;2.90;;;23.90;56.10;;;;;;6300083;27;80438;-71
2022/06/12 01:37:29;;;;;;;3.83;2.60;;;23.90;55.90;;;;;;6305776;27;80499;-71
2022/06/12 01:40:30;;;;;;;3.17;2.65;;;23.90;55.90;;;;;;6308014;27;80395;-71
2022/06/12 01:43:30;;;;;;;5.55;3.17;;;23.90;56.00;;;;;;6307767;27;81103;-71
2022/06/12 01:46:31;;;;;;;5.50;3.22;;;23.90;55.90;;;;;;6301049;27;80413;-70
2022/06/12 01:49:31;;;;;;;5.85;3.03;;;23.80;56.50;;;;;;6300815;27;81128;-70
2022/06/12 01:52:32;;;;;;;6.20;3.13;;;23.80;56.30;;;;;;6307448;27;80632;-70
2022/06/12 01:55:32;;;;;;;5.32;2.80;;;23.90;55.90;;;;;;6304468;27;81684;-70
2022/06/12 01:58:33;;;;;;;7.18;3.50;;;23.80;55.80;;;;;;6304945;27;80206;-70
2022/06/12 02:01:33;;;;;;;3.78;2.45;;;23.90;55.70;;;;;;6304379;27;80948;-70
2022/06/12 02:04:34;;;;;;;3.97;2.70;;;23.90;55.70;;;;;;6299974;27;80371;-70
2022/06/12 02:07:34;;;;;;;5.20;3.22;;;23.80;55.80;;;;;;6299147;27;81373;-70
2022/06/12 02:10:34;;;;;;;7.05;3.17;;;23.90;56.10;;;;;;6305407;27;81099;-71
2022/06/12 02:13:35;;;;;;;6.18;3.15;;;23.80;55.90;;;;;;6303553;27;80887;-70
2022/06/12 02:16:35;;;;;;;4.65;2.65;;;23.80;56.00;;;;;;6311478;27;80369;-72
2022/06/12 02:19:36;;;;;;;3.97;2.72;;;23.80;55.70;;;;;;6310234;27;85614;-71
2022/06/12 02:22:38;;;;;;;7.55;2.97;;;23.80;55.80;;;;;;6309911;27;80591;-71
2022/06/12 02:25:39;;;;;;;3.63;2.47;;;23.80;56.00;;;;;;6308069;27;80427;-71
2022/06/12 02:28:40;;;;;;;3.67;2.90;;;23.80;55.60;;;;;;6305646;27;80472;-71
2022/06/12 02:31:41;;;;;;;5.00;3.10;;;23.80;55.80;;;;;;6309249;27;80577;-70
2022/06/12 02:34:41;;;;;;;5.78;3.67;;;23.80;55.80;;;;;;6308410;27;80955;-70
2022/06/12 02:37:42;;;;;;;4.57;2.90;;;23.80;55.80;;;;;;6310802;27;81946;-71
2022/06/12 02:40:42;;;;;;;5.00;3.10;;;23.80;55.80;;;;;;6307623;27;80427;-71
2022/06/12 02:43:43;;;;;;;4.35;2.88;;;23.80;56.00;;;;;;6296635;27;80211;-71
2022/06/12 02:46:44;;;;;;;4.80;3.30;;;23.70;56.00;;;;;;6310652;27;80391;-71
2022/06/12 02:49:46;;;;;;;4.18;2.80;;;23.80;55.90;;;;;;6308421;27;80615;-70
2022/06/12 02:52:46;;;;;;;4.80;2.92;;;23.80;55.80;;;;;;6310169;27;80774;-71
2022/06/12 02:55:47;;;;;;;3.42;2.60;;;23.80;55.90;;;;;;6305330;27;81404;-71
2022/06/12 02:58:47;;;;;;;9.13;3.55;;;23.80;55.50;;;;;;6307481;27;80606;-70
2022/06/12 03:01:48;;;;;;;4.65;3.05;;;23.80;55.80;;;;;;6288075;27;81815;-70
2022/06/12 03:04:48;;;;;;;4.05;2.65;;;23.80;55.70;;;;;;6310259;27;80658;-70
2022/06/12 03:07:49;;;;;;;5.30;3.35;;;23.80;55.60;;;;;;6307018;27;80393;-70
2022/06/12 03:10:49;;;;;;;5.28;3.05;;;23.80;55.30;;;;;;6310210;27;80425;-71
2022/06/12 03:13:50;;;;;;;3.38;2.80;;;23.70;55.80;;;;;;6305468;27;80378;-70
2022/06/12 03:16:50;;;;;;;6.10;3.25;;;23.80;55.80;;;;;;6301752;27;80538;-71
2022/06/12 03:19:51;;;;;;;7.60;3.17;;;23.70;55.30;;;;;;6290717;27;80899;-70
2022/06/12 03:22:52;;;;;;;9.82;3.47;;;23.80;55.60;;;;;;6309054;27;80868;-71
2022/06/12 03:25:52;;;;;;;4.80;2.88;;;23.80;55.60;;;;;;6308935;27;81020;-71
2022/06/12 03:28:53;;;;;;;3.60;2.63;;;23.70;55.20;;;;;;6305250;27;81941;-71
2022/06/12 03:31:54;;;;;;;6.32;3.58;;;23.70;55.60;;;;;;6306153;27;80655;-71
2022/06/12 03:34:55;;;;;;;4.72;3.08;;;23.70;55.70;;;;;;6302504;27;80673;-70
2022/06/12 03:37:55;;;;;;;7.38;3.00;;;23.70;55.50;;;;;;6308250;27;80193;-71
2022/06/12 03:40:56;;;;;;;5.32;3.30;;;23.70;55.50;;;;;;6318524;27;80828;-72
2022/06/12 03:43:56;;;;;;;3.92;2.97;;;23.70;55.40;;;;;;6304979;27;80889;-72
2022/06/12 03:46:57;;;;;;;7.88;3.20;;;23.70;55.40;;;;;;6307062;27;80598;-72
2022/06/12 03:49:58;;;;;;;4.93;2.75;;;23.70;55.70;;;;;;6288610;27;80457;-72
2022/06/12 03:52:58;;;;;;;7.60;3.30;;;23.70;55.60;;;;;;6307394;27;80256;-72
2022/06/12 03:59:18;;;;;;;4.50;3.08;;;23.70;55.50;;;;;;6306601;27;81896;-73
2022/06/12 04:02:19;;;;;;;5.38;3.00;;;23.70;55.50;;;;;;6309646;27;81047;-72
2022/06/12 04:05:19;;;;;;;6.30;3.10;;;23.70;55.40;;;;;;6309004;27;80498;-72
2022/06/12 04:08:20;;;;;;;4.15;2.90;;;23.70;55.60;;;;;;6308845;27;79997;-71
2022/06/12 04:11:20;;;;;;;7.70;2.92;;;23.70;55.90;;;;;;6308044;27;80494;-71
2022/06/12 04:14:21;;;;;;;5.28;3.30;;;23.80;55.80;;;;;;6304247;27;80219;-72
2022/06/12 04:17:22;;;;;;;7.55;3.63;;;23.80;55.80;;;;;;6305113;27;80701;-70
2022/06/12 04:20:22;;;;;;;5.35;2.80;;;23.80;55.80;;;;;;6304260;27;80232;-69
2022/06/12 04:23:23;;;;;;;5.82;3.28;;;23.80;56.20;;;;;;6307784;27;80975;-71
2022/06/12 04:26:23;;;;;;;4.95;3.13;;;23.80;55.70;;;;;;6307150;27;80663;-70
2022/06/12 04:29:24;;;;;;;7.60;3.30;;;23.90;56.20;;;;;;6305691;27;80179;-68
2022/06/12 04:32:24;;;;;;;3.60;3.15;;;23.90;56.00;;;;;;6308117;27;80898;-70
2022/06/12 04:35:25;;;;;;;4.93;3.15;;;23.90;56.30;;;;;;6299619;27;80487;-70
2022/06/12 04:38:25;;;;;;;4.88;2.70;;;23.90;56.50;;;;;;6295705;27;80561;-70
2022/06/12 04:41:25;;;;;;;5.18;2.80;;;24.00;56.50;;;;;;6298704;27;80729;-69
2022/06/12 04:44:26;;;;;;;3.92;2.72;;;24.00;56.80;;;;;;6302032;27;80532;-70
2022/06/12 04:47:26;;;;;;;7.22;2.85;;;24.00;56.80;;;;;;6297691;27;81460;-71
2022/06/12 04:50:27;;;;;;;4.22;2.88;;;24.00;57.10;;;;;;6299851;27;80467;-68
2022/06/12 04:53:27;;;;;;;7.28;3.47;;;24.10;56.90;;;;;;6293779;27;81339;-69
2022/06/12 04:56:28;;;;;;;12.30;3.53;;;24.10;57.20;;;;;;6280571;27;83197;-68
2022/06/12 04:59:28;;;;;;;6.68;3.42;;;24.10;57.50;;;;;;6307785;27;81918;-73
2022/06/12 05:02:29;;;;;;;6.85;3.15;;;24.10;57.70;;;;;;6306233;27;80576;-70
2022/06/12 05:05:29;;;;;;;4.25;2.75;;;24.20;57.90;;;;;;6299974;27;80596;-69
2022/06/12 05:08:30;;;;;;;10.73;3.80;;;24.20;57.90;;;;;;6300885;27;80227;-68
2022/06/12 05:11:30;;;;;;;8.50;3.78;;;24.20;57.60;;;;;;6300563;27;80342;-70
2022/06/12 05:14:31;;;;;;;25.75;11.38;;;24.20;57.80;;;;;;6296031;27;82466;-68
2022/06/12 05:17:31;;;;;;;58.42;22.73;;;24.20;58.30;;;;;;6296122;27;83327;-69
2022/06/12 05:20:31;;;;;;;51.10;21.80;;;24.30;58.90;;;;;;6296861;27;83299;-69
2022/06/12 05:23:32;;;;;;;94.75;43.65;;;24.30;58.80;;;;;;6296134;27;83914;-69
2022/06/12 05:26:36;;;;;;;100.10;46.20;;;24.30;59.20;;;;;;6285873;27;84983;-68
2022/06/12 05:29:36;;;;;;;92.32;44.22;;;24.30;59.40;;;;;;6303951;27;83719;-71
2022/06/12 05:32:36;;;;;;;96.00;42.45;;;24.30;59.40;;;;;;6295257;27;83192;-69
2022/06/12 05:35:37;;;;;;;72.70;33.70;;;24.30;59.10;;;;;;6298085;27;89791;-70
2022/06/12 05:38:37;;;;;;;68.47;33.90;;;24.40;58.80;;;;;;6303371;27;82897;-69
2022/06/12 05:41:38;;;;;;;59.90;28.35;;;24.30;59.00;;;;;;6301470;27;83283;-71
2022/06/12 05:44:38;;;;;;;48.33;26.88;;;24.40;58.90;;;;;;6296975;27;83345;-70
2022/06/12 05:47:39;;;;;;;47.10;22.95;;;24.40;58.50;;;;;;6298258;27;83375;-68
2022/06/12 05:50:39;;;;;;;39.33;21.05;;;24.40;58.10;;;;;;6301101;27;83076;-69
2022/06/12 05:53:40;;;;;;;42.03;20.52;;;24.50;58.10;;;;;;6302821;27;83443;-70
2022/06/12 05:56:40;;;;;;;37.83;18.60;;;24.50;57.80;;;;;;6275530;27;83112;-69
2022/06/12 05:59:41;;;;;;;32.75;16.17;;;24.50;57.80;;;;;;6307901;27;83663;-67
2022/06/12 06:02:41;;;;;;;25.67;13.55;;;24.50;57.80;;;;;;6306187;27;83495;-69
2022/06/12 06:05:42;;;;;;;29.98;13.35;;;24.40;57.70;;;;;;6307283;27;82700;-68
2022/06/12 06:08:42;;;;;;;24.08;12.07;;;24.40;57.70;;;;;;6308133;27;83815;-69
2022/06/12 06:11:43;;;;;;;25.50;10.38;;;24.40;57.80;;;;;;6307880;27;83079;-71
2022/06/12 06:14:43;;;;;;;18.50;9.50;;;24.50;57.70;;;;;;6307118;27;83433;-70
2022/06/12 06:17:44;;;;;;;18.00;9.55;;;24.50;57.40;;;;;;6308989;27;81464;-74
2022/06/12 06:20:44;;;;;;;15.68;8.27;;;24.60;57.00;;;;;;6309546;27;80513;-70
2022/06/12 06:23:45;;;;;;;13.35;7.03;;;24.60;56.90;;;;;;6301811;27;80201;-68
2022/06/12 06:26:46;;;;;;;10.90;6.05;;;24.50;56.40;;;;;;6306418;27;82682;-67
2022/06/12 06:29:46;;;;;;;11.07;5.25;;;24.40;56.00;;;;;;6298659;27;81602;-77
2022/06/12 06:32:47;;;;;;;9.43;5.25;;;24.40;55.90;;;;;;6302086;27;80600;-70
2022/06/12 06:35:47;;;;;;;7.40;4.60;;;24.40;55.60;;;;;;6276623;27;81095;-74
2022/06/12 06:38:48;;;;;;;16.25;4.75;;;24.40;55.90;;;;;;6300146;27;80594;-76
2022/06/12 06:41:48;;;;;;;7.32;3.80;;;24.50;56.20;;;;;;6294619;27;80949;-72
2022/06/12 06:48:08;;;;;;;5.50;3.33;;;24.50;56.10;;;;;;6303322;27;80147;-69
2022/06/12 06:51:08;;;;;;;7.72;3.90;;;24.50;56.20;;;;;;6305815;27;80580;-72
2022/06/12 06:54:09;;;;;;;4.68;3.45;;;24.50;56.30;;;;;;6301345;27;80880;-70
2022/06/12 06:57:09;;;;;;;9.70;3.40;;;24.50;56.40;;;;;;6303551;27;81184;-70
2022/06/12 07:00:10;;;;;;;6.20;3.83;;;24.60;56.20;;;;;;6297578;27;81604;-71
2022/06/12 07:03:10;;;;;;;4.78;3.20;;;24.60;56.50;;;;;;6299821;27;81136;-72
2022/06/12 07:06:11;;;;;;;6.43;3.28;;;24.60;56.30;;;;;;6294589;27;81468;-66
2022/06/12 07:09:12;;;;;;;7.57;3.45;;;24.60;56.10;;;;;;6306699;27;85947;-70
2022/06/12 07:12:12;;;;;;;11.57;3.00;;;24.60;56.30;;;;;;6294741;27;80852;-73
2022/06/12 07:15:13;;;;;;;3.92;2.90;;;24.50;56.50;;;;;;6291017;27;80457;-69
2022/06/12 07:18:13;;;;;;;7.97;3.03;;;24.30;57.20;;;;;;6296535;27;80714;-70
2022/06/12 07:21:14;;;;;;;10.85;2.80;;;24.40;57.20;;;;;;6295244;27;80844;-69
2022/06/12 07:24:15;;;;;;;61.63;27.42;;;24.50;56.60;;;;;;6293677;27;80534;-67
2022/06/12 07:27:15;;;;;;;115.50;53.08;;;24.60;55.90;;;;;;6292006;27;84291;-71
2022/06/12 07:30:15;;;;;;;298.60;131.02;;;24.60;55.60;;;;;;6296198;27;83450;-68
2022/06/12 07:33:16;;;;;;;138.20;57.67;;;24.70;55.40;;;;;;6292336;27;85665;-69
2022/06/12 07:36:16;;;;;;;120.13;54.10;;;24.70;55.20;;;;;;6302171;27;85807;-68
2022/06/12 07:39:17;;;;;;;83.25;38.40;;;24.70;55.30;;;;;;6304348;27;84054;-68
2022/06/12 07:42:17;;;;;;;52.28;25.08;;;24.70;55.30;;;;;;6303300;27;83398;-71
2022/06/12 07:45:18;;;;;;;42.88;18.45;;;24.70;55.40;;;;;;6301313;27;83707;-70
2022/06/12 07:48:18;;;;;;;29.75;14.65;;;24.80;55.30;;;;;;6305644;27;83712;-75
2022/06/12 07:51:19;;;;;;;26.05;12.02;;;24.80;55.70;;;;;;6310514;27;83525;-72
2022/06/12 07:54:19;;;;;;;19.58;10.70;;;24.80;55.50;;;;;;6298490;27;83001;-69
2022/06/12 07:57:20;;;;;;;23.05;8.60;;;24.90;55.50;;;;;;6292699;27;83178;-75
2022/06/12 08:00:20;;;;;;;12.25;5.65;;;24.90;55.50;;;;;;6304138;27;81704;-80
2022/06/12 08:03:21;;;;;;;9.50;4.65;;;24.90;53.40;;;;;;6297596;27;80607;-72
2022/06/12 08:06:21;;;;;;;7.50;4.50;;;24.80;53.50;;;;;;6300790;27;81488;-73
2022/06/12 08:09:22;;;;;;;8.38;3.80;;;24.90;53.80;;;;;;6305191;27;80397;-71
2022/06/12 08:12:22;;;;;;;5.68;3.63;;;24.90;53.20;;;;;;6301519;27;80801;-69
2022/06/12 08:15:23;;;;;;;6.40;3.70;;;24.90;53.10;;;;;;6293052;27;80399;-77
2022/06/12 08:18:23;;;;;;;6.35;3.10;;;24.90;53.30;;;;;;6298905;27;81087;-73
2022/06/12 08:21:24;;;;;;;6.97;3.13;;;24.90;53.00;;;;;;6294091;27;81442;-71
2022/06/12 08:24:24;;;;;;;6.63;3.00;;;24.90;53.10;;;;;;6294112;27;80549;-72
2022/06/12 08:27:25;;;;;;;6.78;2.97;;;24.90;51.70;;;;;;6289852;27;80334;-71
2022/06/12 08:30:25;;;;;;;5.93;2.50;;;24.90;50.60;;;;;;6292723;27;80545;-73
2022/06/12 08:33:26;;;;;;;8.05;2.83;;;24.90;50.70;;;;;;6305019;27;80830;-70
2022/06/12 08:36:26;;;;;;;3.20;2.42;;;24.90;50.60;;;;;;6299310;27;80604;-67
2022/06/12 08:39:27;;;;;;;3.75;2.63;;;24.90;51.00;;;;;;6296791;27;88042;-68
2022/06/12 08:42:27;;;;;;;3.38;2.40;;;24.90;51.20;;;;;;6305176;27;80414;-68
2022/06/12 08:45:28;;;;;;;4.90;2.63;;;24.90;51.20;;;;;;6305708;27;81991;-71
2022/06/12 08:48:28;;;;;;;3.67;2.55;;;24.90;51.50;;;;;;6304191;27;80373;-72
2022/06/12 08:51:29;;;;;;;2.95;2.63;;;25.00;51.50;;;;;;6301792;27;81644;-69
2022/06/12 08:54:29;;;;;;;2.70;1.90;;;25.00;51.70;;;;;;6297842;27;80305;-67
2022/06/12 08:57:30;;;;;;;4.93;2.28;;;25.00;51.80;;;;;;6307938;27;80887;-68
2022/06/12 09:00:30;;;;;;;5.38;2.83;;;25.00;52.10;;;;;;6300969;27;80398;-67
2022/06/12 09:03:31;;;;;;;3.75;2.17;;;25.10;52.40;;;;;;6302339;27;80399;-68
2022/06/12 09:06:32;;;;;;;3.10;2.70;;;25.10;52.50;;;;;;6307838;27;80361;-67
2022/06/12 09:09:32;;;;;;;8.40;2.50;;;25.10;52.30;;;;;;6303029;27;80437;-64
2022/06/12 09:12:33;;;;;;;4.13;2.83;;;25.10;52.40;;;;;;6300588;27;80077;-70
2022/06/12 09:15:34;;;;;;;6.45;2.25;;;25.10;52.50;;;;;;6302004;27;80983;-71
2022/06/12 09:18:34;;;;;;;4.65;2.65;;;25.10;52.70;;;;;;6311103;27;80359;-73
2022/06/12 09:21:35;;;;;;;5.07;2.85;;;25.10;52.50;;;;;;6303491;27;80924;-71
2022/06/12 09:24:35;;;;;;;7.20;2.90;;;25.10;51.90;;;;;;6302347;27;80558;-69
2022/06/12 09:27:36;;;;;;;4.15;2.80;;;25.10;52.50;;;;;;6307009;27;81641;-67
2022/06/12 09:30:36;;;;;;;8.10;2.53;;;25.20;52.50;;;;;;6305857;27;80984;-74
2022/06/12 09:33:37;;;;;;;5.15;3.13;;;25.20;52.50;;;;;;6301144;27;80982;-72
2022/06/12 09:36:37;;;;;;;8.38;2.85;;;25.20;52.30;;;;;;6292919;27;80318;-72
2022/06/12 09:39:38;;;;;;;8.63;3.15;;;25.20;51.40;;;;;;6300580;27;81673;-68
2022/06/12 09:42:38;;;;;;;9.02;2.53;;;25.20;50.90;;;;;;6299023;27;81986;-71
2022/06/12 09:45:40;;;;;;;3.85;2.75;;;25.20;51.40;;;;;;6305124;27;80774;-71
2022/06/12 09:48:40;;;;;;;7.18;3.13;;;25.30;51.60;;;;;;6285470;27;82145;-70
2022/06/12 09:51:41;;;;;;;3.97;2.50;;;25.30;51.50;;;;;;6297990;27;80531;-70
2022/06/12 09:54:41;;;;;;;2.72;2.00;;;25.30;51.50;;;;;;6300504;27;81292;-71
2022/06/12 09:57:42;;;;;;;5.22;2.72;;;25.30;51.20;;;;;;6301259;27;82297;-71
2022/06/12 10:00:42;;;;;;;5.10;2.83;;;25.30;51.50;;;;;;6310581;27;80796;-71
2022/06/12 10:03:43;;;;;;;7.53;2.33;;;25.40;51.30;;;;;;6306353;27;80549;-70
2022/06/12 10:06:43;;;;;;;5.82;2.40;;;25.40;51.10;;;;;;6303824;27;81405;-71
2022/06/12 10:09:44;;;;;;;2.55;1.80;;;25.40;50.70;;;;;;6304219;27;80517;-72
2022/06/12 10:12:44;;;;;;;2.97;2.05;;;25.40;50.40;;;;;;6306323;27;80789;-74
2022/06/12 10:15:45;;;;;;;4.88;2.35;;;25.40;50.40;;;;;;6304499;27;80223;-74
2022/06/12 10:18:46;;;;;;;4.38;2.20;;;25.50;50.90;;;;;;6307657;27;80881;-75
2022/06/12 10:21:46;;;;;;;4.53;2.47;;;25.50;50.70;;;;;;6307525;27;80711;-74
2022/06/12 10:24:48;;;;;;;5.15;2.47;;;25.50;50.90;;;;;;6307399;27;80406;-75
2022/06/12 10:27:48;;;;;;;2.70;2.10;;;25.60;50.80;;;;;;6311362;27;81045;-73
2022/06/12 10:30:49;;;;;;;3.80;2.13;;;25.60;50.90;;;;;;6307484;27;80471;-72
2022/06/12 10:33:49;;;;;;;3.60;2.40;;;25.60;51.10;;;;;;6299917;27;80525;-72
2022/06/12 10:36:50;;;;;;;7.70;2.63;;;25.60;51.30;;;;;;6306508;27;80186;-74
2022/06/12 10:39:50;;;;;;;2.53;1.80;;;25.60;50.80;;;;;;6304381;27;81382;-80
2022/06/12 10:42:51;;;;;;;3.65;2.00;;;25.50;50.70;;;;;;6308033;27;80324;-71
2022/06/12 10:45:51;;;;;;;5.03;2.30;;;25.50;51.50;;;;;;6308850;27;80685;-69
2022/06/12 10:48:51;;;;;;;8.75;2.53;;;25.50;52.00;;;;;;6306614;27;80591;-80
2022/06/12 10:51:52;;;;;;;5.70;2.20;;;25.50;53.10;;;;;;6292675;27;83635;-72
2022/06/12 10:54:52;;;;;;;4.60;2.10;;;25.60;52.80;;;;;;6287691;27;80251;-69
2022/06/12 10:57:53;;;;;;;4.43;2.42;;;25.60;52.70;;;;;;6308339;27;81781;-70
2022/06/12 11:00:54;;;;;;;4.38;2.28;;;25.60;53.20;;;;;;6281375;27;80899;-72
2022/06/12 11:03:54;;;;;;;2.08;1.80;;;25.60;52.40;;;;;;6303960;27;80303;-71
2022/06/12 11:06:55;;;;;;;3.10;1.90;;;25.60;52.00;;;;;;6302656;27;80564;-75
2022/06/12 11:09:55;;;;;;;3.35;1.95;;;25.60;50.80;;;;;;6285336;27;81693;-72
2022/06/12 11:12:56;;;;;;;2.25;2.03;;;25.50;50.60;;;;;;6301296;27;80575;-75
2022/06/12 11:15:56;;;;;;;4.75;2.80;;;25.50;50.90;;;;;;6299990;27;80163;-73
2022/06/12 11:18:57;;;;;;;7.25;2.95;;;25.50;50.70;;;;;;6306264;27;80632;-73
2022/06/12 11:21:57;;;;;;;13.77;3.25;;;25.60;50.80;;;;;;6299394;27;80408;-72
2022/06/12 11:24:58;;;;;;;4.35;2.60;;;25.60;51.00;;;;;;6300076;27;80541;-71
2022/06/12 11:28:00;;;;;;;5.97;2.83;;;25.50;50.80;;;;;;6299178;27;80526;-70
2022/06/12 11:31:00;;;;;;;6.95;2.35;;;25.50;50.90;;;;;;6298905;27;80368;-71
2022/06/12 11:34:01;;;;;;;4.25;2.50;;;25.60;51.20;;;;;;6295453;27;80498;-72
2022/06/12 11:37:01;;;;;;;4.15;2.22;;;25.60;51.30;;;;;;6297947;27;80572;-71
2022/06/12 11:40:01;;;;;;;7.25;2.47;;;25.60;51.50;;;;;;6298830;27;80573;-72
2022/06/12 11:43:02;;;;;;;5.40;2.03;;;25.70;51.50;;;;;;6302104;27;84339;-71
2022/06/12 11:46:02;;;;;;;4.53;2.17;;;25.70;50.20;;;;;;6301520;27;80518;-75
2022/06/12 11:49:03;;;;;;;2.65;2.00;;;25.60;49.40;;;;;;6297192;27;80684;-76
2022/06/12 11:52:04;;;;;;;3.42;1.83;;;25.60;49.70;;;;;;6306989;27;80385;-76
2022/06/12 11:55:04;;;;;;;2.30;1.52;;;25.60;49.80;;;;;;6309516;27;80538;-73
2022/06/12 11:58:05;;;;;;;5.32;1.90;;;25.60;49.90;;;;;;6307222;27;80393;-71
2022/06/12 12:01:05;;;;;;;2.70;1.60;;;25.70;50.20;;;;;;6305020;27;79952;-81
2022/06/12 12:04:06;;;;;;;6.30;2.35;;;25.70;50.30;;;;;;6300910;27;80370;-81
2022/06/12 12:07:07;;;;;;;3.47;2.03;;;25.70;50.60;;;;;;6284815;27;80958;-74
2022/06/12 12:10:07;;;;;;;6.05;2.40;;;25.70;50.50;;;;;;6305823;27;80867;-74
2022/06/12 12:13:07;;;;;;;5.30;1.90;;;25.70;50.40;;;;;;6309264;27;80181;-78
2022/06/12 12:16:08;;;;;;;2.80;1.98;;;25.70;51.10;;;;;;6288027;27;83781;-76
2022/06/12 12:19:09;;;;;;;2.90;1.95;;;25.80;52.00;;;;;;6304280;27;80829;-69
2022/06/12 12:22:10;;;;;;;6.65;1.92;;;25.90;53.80;;;;;;6305434;27;81588;-73
2022/06/12 12:25:11;;;;;;;3.70;2.10;;;25.80;55.80;;;;;;6304865;27;80389;-71
2022/06/12 12:28:11;;;;;;;3.53;1.83;;;25.90;55.30;;;;;;6303933;27;80600;-77
2022/06/12 12:31:12;;;;;;;2.92;2.17;;;25.90;56.90;;;;;;6304846;27;80762;-70
2022/06/12 12:34:12;;;;;;;6.63;2.42;;;25.80;56.00;;;;;;6284830;27;80480;-83
2022/06/12 12:43:51;;;;;;;3.10;2.28;;;25.80;52.30;;;;;;6299308;27;80561;-85
2022/06/12 12:46:52;;;;;;;7.70;2.30;;;25.80;52.20;;;;;;6305881;27;80459;-77
2022/06/12 12:49:52;;;;;;;6.07;2.15;;;25.80;51.40;;;;;;6299167;27;80823;-74
2022/06/12 12:52:55;;;;;;;3.38;2.03;;;25.80;51.00;;;;;;6299608;27;80375;-78
2022/06/12 12:55:55;;;;;;;2.17;1.65;;;25.80;51.00;;;;;;6298029;27;81523;-67
2022/06/12 12:58:56;;;;;;;2.67;1.80;;;25.90;51.20;;;;;;6305008;27;81650;-75
2022/06/12 13:01:56;;;;;;;5.72;1.83;;;25.90;51.00;;;;;;6301859;27;80825;-75
2022/06/12 13:04:57;;;;;;;2.75;1.98;;;25.90;50.90;;;;;;6267674;27;83274;-75
2022/06/12 13:07:57;;;;;;;2.65;2.00;;;25.90;51.00;;;;;;6294849;27;80612;-71
2022/06/12 13:10:58;;;;;;;3.40;2.08;;;25.90;50.70;;;;;;6307353;27;80771;-77
2022/06/12 13:13:58;;;;;;;1.83;1.73;;;25.90;50.40;;;;;;6303035;27;80900;-79
2022/06/12 13:16:59;;;;;;;2.28;1.75;;;25.90;50.60;;;;;;6294003;27;80972;-77
2022/06/12 13:19:59;;;;;;;3.72;1.65;;;25.90;50.30;;;;;;6297414;27;80555;-75
2022/06/12 13:23:00;;;;;;;6.75;2.15;;;25.90;50.20;;;;;;6298858;27;80977;-75
2022/06/12 13:26:00;;;;;;;4.35;1.70;;;25.90;50.10;;;;;;6294677;27;80684;-79
2022/06/12 13:29:01;;;;;;;5.82;2.30;;;25.90;50.30;;;;;;6291496;27;80637;-79
2022/06/12 13:32:01;;;;;;;9.23;1.92;;;25.90;49.90;;;;;;6295957;27;81025;-81
2022/06/12 13:35:03;;;;;;;6.88;2.13;;;25.90;49.80;;;;;;6298746;27;80298;-85
2022/06/12 13:38:03;;;;;;;3.60;1.70;;;25.90;49.70;;;;;;6291201;27;82097;-85
2022/06/12 13:41:04;;;;;;;2.13;1.85;;;25.90;49.80;;;;;;6293328;27;80815;-81
2022/06/12 13:44:05;;;;;;;2.67;1.75;;;25.90;49.60;;;;;;6308101;27;80732;-79
2022/06/12 13:47:05;;;;;;;4.00;2.30;;;25.90;49.40;;;;;;6275554;27;80468;-79
2022/06/12 13:50:06;;;;;;;3.58;1.73;;;25.90;49.40;;;;;;6294941;27;80639;-85
2022/06/12 13:53:07;;;;;;;2.88;1.67;;;25.90;49.30;;;;;;6305578;27;81326;-80
2022/06/12 13:56:07;;;;;;;2.45;1.95;;;25.90;49.30;;;;;;6306099;27;80691;-89
2022/06/12 13:59:08;;;;;;;13.00;2.00;;;25.90;49.40;;;;;;6312643;27;80521;-88
2022/06/12 14:02:08;;;;;;;2.85;1.77;;;25.90;49.40;;;;;;6314562;27;81007;-86
2022/06/12 14:05:09;;;;;;;3.53;2.00;;;25.80;49.30;;;;;;6312517;27;79953;-86
2022/06/12 14:08:10;;;;;;;2.47;1.80;;;25.90;49.80;;;;;;6309223;27;80848;-85
2022/06/12 14:11:10;;;;;;;4.90;2.10;;;25.80;49.30;;;;;;6301709;27;80442;-83
2022/06/12 14:14:11;;;;;;;46.17;19.17;;;25.80;49.30;;;;;;6293450;27;80426;-82
2022/06/12 14:17:11;;;;;;;138.60;57.03;;;25.80;49.30;;;;;;6316447;27;83058;-87
2022/06/12 14:20:12;;;;;;;209.95;93.25;;;25.80;49.30;;;;;;6307793;27;83045;-85
2022/06/12 14:23:12;;;;;;;316.30;134.68;;;25.80;49.30;;;;;;6280268;27;83353;-83
2022/06/12 14:26:13;;;;;;;235.38;99.03;;;25.80;49.30;;;;;;6305992;27;85249;-88
2022/06/12 14:29:13;;;;;;;242.43;98.43;;;25.80;49.30;;;;;;6311601;27;84049;-88
2022/06/12 14:32:13;;;;;;;215.48;90.60;;;25.80;49.00;;;;;;6304937;27;83329;-84
2022/06/12 14:35:14;;;;;;;124.82;50.58;;;25.80;49.30;;;;;;6307369;27;84770;-83
2022/06/12 14:38:15;;;;;;;93.10;43.70;;;25.70;48.10;;;;;;6292445;27;83205;-81
2022/06/12 14:41:15;;;;;;;61.38;26.20;;;25.70;48.40;;;;;;6286395;27;84463;-82
2022/06/12 14:44:16;;;;;;;79.40;34.92;;;25.70;47.60;;;;;;6308613;27;83114;-79
2022/06/12 14:47:17;;;;;;;44.13;17.42;;;25.70;48.70;;;;;;6299665;27;83501;-76
2022/06/12 14:50:17;;;;;;;51.05;22.30;;;25.70;48.00;;;;;;6307030;27;83660;-70
2022/06/12 14:53:18;;;;;;;36.25;15.35;;;25.70;48.60;;;;;;6286511;27;82999;-75
2022/06/12 14:56:18;;;;;;;33.33;14.60;;;25.70;48.40;;;;;;6301268;27;83226;-78
2022/06/12 14:59:18;;;;;;;27.45;11.18;;;25.70;48.90;;;;;;6301438;27;84504;-76
2022/06/12 15:02:19;;;;;;;25.73;10.82;;;25.70;48.90;;;;;;6314049;27;82949;-72
2022/06/12 15:05:19;;;;;;;15.05;7.30;;;25.70;49.20;;;;;;6311664;27;84155;-73
2022/06/12 15:08:20;;;;;;;17.10;7.05;;;25.70;49.10;;;;;;6290125;27;81876;-74
2022/06/12 15:11:20;;;;;;;21.77;7.50;;;25.70;49.20;;;;;;6298180;27;80315;-72
2022/06/12 15:14:21;;;;;;;18.02;7.40;;;25.80;49.60;;;;;;6309431;27;81991;-74
2022/06/12 15:17:21;;;;;;;32.90;11.60;;;25.80;49.90;;;;;;6310291;27;80391;-71
2022/06/12 15:20:22;;;;;;;34.03;13.70;;;25.80;50.20;;;;;;6301452;27;84580;-72
2022/06/12 15:23:23;;;;;;;32.42;11.43;;;25.70;50.10;;;;;;6288450;27;83367;-72
2022/06/12 15:29:46;;;;;;;25.30;9.60;;;25.80;50.20;;;;;;6302215;27;87714;-71
2022/06/12 15:32:47;;;;;;;21.83;6.60;;;25.70;50.10;;;;;;6297997;27;80435;-74
2022/06/12 15:35:47;;;;;;;10.63;4.72;;;25.70;49.50;;;;;;6309315;27;81022;-73
2022/06/12 15:38:48;;;;;;;7.88;3.40;;;25.70;49.10;;;;;;6301869;27;80113;-79
2022/06/12 15:41:48;;;;;;;8.18;3.25;;;25.70;48.20;;;;;;6304288;27;80491;-71
2022/06/12 15:44:48;;;;;;;13.70;5.72;;;25.70;48.80;;;;;;6298441;27;81224;-77
2022/06/12 15:47:49;;;;;;;12.32;3.95;;;25.70;49.20;;;;;;6302088;27;81420;-74
2022/06/12 15:50:51;;;;;;;7.22;3.30;;;25.70;49.20;;;;;;6294690;27;80300;-73
2022/06/12 15:53:51;;;;;;;5.22;2.70;;;25.70;49.20;;;;;;6297291;27;80472;-75